sensor_id;sensor_type;location;lat;lon;timestamp;P1;durP1;ratioP1;P2;durP2;ratioP2
359;SDS011;168;48.872;9.226;2023-03-14T00:02:08;1.20;;;0.90;;
359;SDS011;168;48.872;9.226;2023-03-14T00:04:35;0.60;;;0.60;;
359;SDS011;168;48.872;9.226;2023-03-14T00:07:03;0.93;;;0.93;;
359;SDS011;168;48.872;9.226;2023-03-14T00:09:32;1.33;;;1.23;;
359;SDS011;168;48.872;9.226;2023-03-14T00:11:59;2.03;;;1.03;;
359;SDS011;168;48.872;9.226;2023-03-14T00:14:28;3.50;;;1.67;;
359;SDS011;168;48.872;9.226;2023-03-14T00:16:55;1.60;;;1.50;;
359;SDS011;168;48.872;9.226;2023-03-14T00:19:23;3.83;;;1.13;;
359;SDS011;168;48.872;9.226;2023-03-14T00:21:50;2.73;;;1.23;;
359;SDS011;168;48.872;9.226;2023-03-14T00:24:17;2.93;;;1.67;;
359;SDS011;168;48.872;9.226;2023-03-14T00:26:46;2.20;;;1.33;;
359;SDS011;168;48.872;9.226;2023-03-14T00:29:13;1.00;;;1.00;;
359;SDS011;168;48.872;9.226;2023-03-14T00:31:41;1.20;;;1.10;;
359;SDS011;168;48.872;9.226;2023-03-14T00:34:09;1.20;;;1.10;;
359;SDS011;168;48.872;9.226;2023-03-14T00:36:36;1.13;;;1.03;;
359;SDS011;168;48.872;9.226;2023-03-14T00:39:03;1.43;;;1.10;;
359;SDS011;168;48.872;9.226;2023-03-14T00:41:31;1.10;;;1.00;;
359;SDS011;168;48.872;9.226;2023-03-14T00:43:59;2.00;;;0.80;;
359;SDS011;168;48.872;9.226;2023-03-14T00:46:27;0.70;;;0.70;;
359;SDS011;168;48.872;9.226;2023-03-14T00:48:55;1.90;;;0.87;;
359;SDS011;168;48.872;9.226;2023-03-14T00:51:22;0.73;;;0.70;;
359;SDS011;168;48.872;9.226;2023-03-14T00:53:49;0.90;;;0.90;;
359;SDS011;168;48.872;9.226;2023-03-14T00:56:17;0.97;;;0.87;;
359;SDS011;168;48.872;9.226;2023-03-14T00:58:44;0.80;;;0.80;;
359;SDS011;168;48.872;9.226;2023-03-14T01:01:14;0.67;;;0.60;;
359;SDS011;168;48.872;9.226;2023-03-14T01:03:42;0.87;;;0.87;;
359;SDS011;168;48.872;9.226;2023-03-14T01:06:11;0.87;;;0.83;;
359;SDS011;168;48.872;9.226;2023-03-14T01:08:40;0.87;;;0.87;;
359;SDS011;168;48.872;9.226;2023-03-14T01:11:08;1.40;;;0.80;;
359;SDS011;168;48.872;9.226;2023-03-14T01:13:36;0.97;;;0.93;;
359;SDS011;168;48.872;9.226;2023-03-14T01:16:04;0.77;;;0.77;;
359;SDS011;168;48.872;9.226;2023-03-14T01:18:34;0.80;;;0.80;;
359;SDS011;168;48.872;9.226;2023-03-14T01:21:02;1.33;;;0.80;;
359;SDS011;168;48.872;9.226;2023-03-14T01:23:30;1.17;;;1.17;;
359;SDS011;168;48.872;9.226;2023-03-14T01:25:57;1.67;;;1.30;;
359;SDS011;168;48.872;9.226;2023-03-14T01:28:24;1.10;;;1.00;;
359;SDS011;168;48.872;9.226;2023-03-14T01:30:52;1.00;;;0.60;;
359;SDS011;168;48.872;9.226;2023-03-14T01:33:19;0.80;;;0.80;;
359;SDS011;168;48.872;9.226;2023-03-14T01:35:50;0.87;;;0.80;;
359;SDS011;168;48.872;9.226;2023-03-14T01:38:17;0.60;;;0.60;;
359;SDS011;168;48.872;9.226;2023-03-14T01:40:45;1.70;;;0.90;;
359;SDS011;168;48.872;9.226;2023-03-14T01:43:13;0.60;;;0.60;;
359;SDS011;168;48.872;9.226;2023-03-14T01:48:46;1.10;;;0.73;;
359;SDS011;168;48.872;9.226;2023-03-14T01:51:19;0.50;;;0.50;;
359;SDS011;168;48.872;9.226;2023-03-14T01:54:10;0.70;;;0.70;;
359;SDS011;168;48.872;9.226;2023-03-14T01:56:41;0.70;;;0.70;;
359;SDS011;168;48.872;9.226;2023-03-14T01:59:12;1.20;;;0.60;;
359;SDS011;168;48.872;9.226;2023-03-14T02:01:40;0.90;;;0.80;;
359;SDS011;168;48.872;9.226;2023-03-14T02:04:11;0.80;;;0.80;;
359;SDS011;168;48.872;9.226;2023-03-14T02:06:42;0.70;;;0.60;;
359;SDS011;168;48.872;9.226;2023-03-14T02:09:15;0.53;;;0.53;;
359;SDS011;168;48.872;9.226;2023-03-14T02:11:43;0.60;;;0.60;;
359;SDS011;168;48.872;9.226;2023-03-14T02:14:14;1.03;;;0.90;;
359;SDS011;168;48.872;9.226;2023-03-14T02:16:48;0.60;;;0.60;;
359;SDS011;168;48.872;9.226;2023-03-14T02:19:16;0.83;;;0.83;;
359;SDS011;168;48.872;9.226;2023-03-14T02:21:52;0.67;;;0.67;;
359;SDS011;168;48.872;9.226;2023-03-14T02:24:24;0.70;;;0.70;;
359;SDS011;168;48.872;9.226;2023-03-14T02:27:03;0.97;;;0.70;;
359;SDS011;168;48.872;9.226;2023-03-14T02:29:35;1.63;;;0.70;;
359;SDS011;168;48.872;9.226;2023-03-14T02:32:07;0.60;;;0.53;;
359;SDS011;168;48.872;9.226;2023-03-14T02:34:35;0.50;;;0.50;;
359;SDS011;168;48.872;9.226;2023-03-14T02:37:03;0.70;;;0.60;;
359;SDS011;168;48.872;9.226;2023-03-14T02:39:33;0.70;;;0.70;;
359;SDS011;168;48.872;9.226;2023-03-14T02:42:06;0.60;;;0.60;;
359;SDS011;168;48.872;9.226;2023-03-14T02:44:33;0.77;;;0.70;;
359;SDS011;168;48.872;9.226;2023-03-14T02:47:02;0.90;;;0.60;;
359;SDS011;168;48.872;9.226;2023-03-14T02:49:30;0.87;;;0.73;;
359;SDS011;168;48.872;9.226;2023-03-14T02:52:00;0.73;;;0.60;;
359;SDS011;168;48.872;9.226;2023-03-14T02:54:27;0.70;;;0.70;;
359;SDS011;168;48.872;9.226;2023-03-14T02:56:55;0.70;;;0.57;;
359;SDS011;168;48.872;9.226;2023-03-14T02:59:23;0.70;;;0.60;;
359;SDS011;168;48.872;9.226;2023-03-14T03:01:51;1.87;;;0.63;;
359;SDS011;168;48.872;9.226;2023-03-14T03:04:18;0.60;;;0.60;;
359;SDS011;168;48.872;9.226;2023-03-14T03:06:45;1.23;;;0.90;;
359;SDS011;168;48.872;9.226;2023-03-14T03:09:13;1.30;;;1.17;;
359;SDS011;168;48.872;9.226;2023-03-14T03:11:40;1.10;;;0.70;;
359;SDS011;168;48.872;9.226;2023-03-14T03:14:08;0.50;;;0.50;;
359;SDS011;168;48.872;9.226;2023-03-14T03:16:36;1.53;;;0.67;;
359;SDS011;168;48.872;9.226;2023-03-14T03:19:04;0.80;;;0.80;;
359;SDS011;168;48.872;9.226;2023-03-14T03:21:31;3.60;;;1.03;;
359;SDS011;168;48.872;9.226;2023-03-14T03:23:58;5.60;;;1.00;;
359;SDS011;168;48.872;9.226;2023-03-14T03:26:26;1.20;;;0.80;;
359;SDS011;168;48.872;9.226;2023-03-14T03:28:53;0.90;;;0.90;;
359;SDS011;168;48.872;9.226;2023-03-14T03:31:20;0.83;;;0.83;;
359;SDS011;168;48.872;9.226;2023-03-14T03:33:49;1.27;;;0.70;;
359;SDS011;168;48.872;9.226;2023-03-14T03:36:20;1.53;;;0.80;;
359;SDS011;168;48.872;9.226;2023-03-14T03:38:47;1.13;;;0.90;;
359;SDS011;168;48.872;9.226;2023-03-14T03:41:15;1.10;;;1.00;;
359;SDS011;168;48.872;9.226;2023-03-14T03:43:43;1.03;;;0.80;;
359;SDS011;168;48.872;9.226;2023-03-14T03:46:10;0.73;;;0.73;;
359;SDS011;168;48.872;9.226;2023-03-14T03:48:39;0.70;;;0.70;;
359;SDS011;168;48.872;9.226;2023-03-14T03:51:08;1.40;;;0.80;;
359;SDS011;168;48.872;9.226;2023-03-14T03:53:39;0.83;;;0.80;;
359;SDS011;168;48.872;9.226;2023-03-14T03:56:07;1.00;;;0.73;;
359;SDS011;168;48.872;9.226;2023-03-14T03:58:35;1.37;;;0.70;;
359;SDS011;168;48.872;9.226;2023-03-14T04:01:04;0.97;;;0.70;;
359;SDS011;168;48.872;9.226;2023-03-14T04:03:32;1.87;;;1.00;;
359;SDS011;168;48.872;9.226;2023-03-14T04:06:00;1.70;;;0.90;;
359;SDS011;168;48.872;9.226;2023-03-14T04:08:30;2.60;;;1.00;;
359;SDS011;168;48.872;9.226;2023-03-14T04:10:58;2.00;;;1.00;;
359;SDS011;168;48.872;9.226;2023-03-14T04:13:27;1.13;;;1.03;;
359;SDS011;168;48.872;9.226;2023-03-14T04:15:55;1.43;;;0.70;;
359;SDS011;168;48.872;9.226;2023-03-14T04:18:22;3.30;;;1.30;;
359;SDS011;168;48.872;9.226;2023-03-14T04:20:51;2.27;;;0.70;;
359;SDS011;168;48.872;9.226;2023-03-14T04:23:19;1.27;;;0.70;;
359;SDS011;168;48.872;9.226;2023-03-14T04:25:48;2.70;;;1.30;;
359;SDS011;168;48.872;9.226;2023-03-14T04:28:16;1.20;;;0.77;;
359;SDS011;168;48.872;9.226;2023-03-14T04:30:43;3.40;;;0.97;;
359;SDS011;168;48.872;9.226;2023-03-14T04:33:11;3.07;;;0.80;;
359;SDS011;168;48.872;9.226;2023-03-14T04:35:42;3.07;;;1.10;;
359;SDS011;168;48.872;9.226;2023-03-14T04:38:10;0.80;;;0.80;;
359;SDS011;168;48.872;9.226;2023-03-14T04:40:38;1.20;;;0.80;;
359;SDS011;168;48.872;9.226;2023-03-14T04:43:07;1.20;;;0.90;;
359;SDS011;168;48.872;9.226;2023-03-14T04:45:36;2.83;;;1.23;;
359;SDS011;168;48.872;9.226;2023-03-14T04:48:04;3.20;;;1.10;;
359;SDS011;168;48.872;9.226;2023-03-14T04:50:31;1.27;;;1.00;;
359;SDS011;168;48.872;9.226;2023-03-14T04:52:59;2.20;;;0.97;;
359;SDS011;168;48.872;9.226;2023-03-14T04:55:26;2.07;;;1.30;;
359;SDS011;168;48.872;9.226;2023-03-14T04:57:53;2.40;;;1.30;;
359;SDS011;168;48.872;9.226;2023-03-14T05:00:22;3.03;;;1.20;;
359;SDS011;168;48.872;9.226;2023-03-14T05:02:50;2.80;;;1.07;;
359;SDS011;168;48.872;9.226;2023-03-14T05:05:17;1.37;;;1.00;;
359;SDS011;168;48.872;9.226;2023-03-14T05:07:45;1.67;;;1.00;;
359;SDS011;168;48.872;9.226;2023-03-14T05:10:13;2.00;;;1.30;;
359;SDS011;168;48.872;9.226;2023-03-14T05:12:41;2.73;;;1.10;;
359;SDS011;168;48.872;9.226;2023-03-14T05:15:09;2.73;;;1.30;;
359;SDS011;168;48.872;9.226;2023-03-14T05:17:38;2.67;;;1.57;;
359;SDS011;168;48.872;9.226;2023-03-14T05:20:06;1.93;;;1.50;;
359;SDS011;168;48.872;9.226;2023-03-14T05:22:38;1.33;;;0.90;;
359;SDS011;168;48.872;9.226;2023-03-14T05:25:05;1.60;;;1.00;;
359;SDS011;168;48.872;9.226;2023-03-14T05:27:33;3.50;;;1.10;;
359;SDS011;168;48.872;9.226;2023-03-14T05:30:01;2.60;;;1.20;;
359;SDS011;168;48.872;9.226;2023-03-14T05:32:29;2.97;;;1.87;;
359;SDS011;168;48.872;9.226;2023-03-14T05:34:57;2.93;;;1.30;;
359;SDS011;168;48.872;9.226;2023-03-14T05:37:26;2.20;;;1.03;;
359;SDS011;168;48.872;9.226;2023-03-14T05:39:53;4.63;;;1.37;;
359;SDS011;168;48.872;9.226;2023-03-14T05:42:21;2.87;;;1.20;;
359;SDS011;168;48.872;9.226;2023-03-14T05:44:48;2.20;;;0.80;;
359;SDS011;168;48.872;9.226;2023-03-14T05:47:16;1.27;;;1.10;;
359;SDS011;168;48.872;9.226;2023-03-14T05:49:43;1.90;;;1.07;;
359;SDS011;168;48.872;9.226;2023-03-14T05:52:16;2.23;;;1.10;;
359;SDS011;168;48.872;9.226;2023-03-14T05:54:46;1.17;;;0.90;;
359;SDS011;168;48.872;9.226;2023-03-14T05:57:14;1.47;;;1.20;;
359;SDS011;168;48.872;9.226;2023-03-14T05:59:42;2.00;;;1.33;;
359;SDS011;168;48.872;9.226;2023-03-14T06:02:11;4.53;;;1.13;;
359;SDS011;168;48.872;9.226;2023-03-14T06:04:44;2.70;;;1.20;;
359;SDS011;168;48.872;9.226;2023-03-14T06:07:16;3.57;;;0.80;;
359;SDS011;168;48.872;9.226;2023-03-14T06:09:54;1.30;;;1.00;;
359;SDS011;168;48.872;9.226;2023-03-14T06:12:22;1.53;;;1.10;;
359;SDS011;168;48.872;9.226;2023-03-14T06:14:54;2.10;;;1.03;;
359;SDS011;168;48.872;9.226;2023-03-14T06:17:24;4.60;;;0.80;;
359;SDS011;168;48.872;9.226;2023-03-14T06:19:54;2.27;;;1.10;;
359;SDS011;168;48.872;9.226;2023-03-14T06:22:38;2.70;;;1.00;;
359;SDS011;168;48.872;9.226;2023-03-14T06:25:13;1.83;;;1.10;;
359;SDS011;168;48.872;9.226;2023-03-14T06:27:54;1.90;;;0.80;;
359;SDS011;168;48.872;9.226;2023-03-14T06:33:31;1.13;;;0.80;;
359;SDS011;168;48.872;9.226;2023-03-14T06:36:10;2.20;;;0.93;;
359;SDS011;168;48.872;9.226;2023-03-14T06:38:50;2.50;;;1.00;;
359;SDS011;168;48.872;9.226;2023-03-14T06:41:21;0.97;;;0.80;;
359;SDS011;168;48.872;9.226;2023-03-14T06:44:07;2.40;;;0.87;;
359;SDS011;168;48.872;9.226;2023-03-14T06:46:43;1.93;;;0.90;;
359;SDS011;168;48.872;9.226;2023-03-14T06:49:23;1.53;;;0.90;;
359;SDS011;168;48.872;9.226;2023-03-14T06:52:12;2.10;;;0.90;;
359;SDS011;168;48.872;9.226;2023-03-14T06:57:36;2.00;;;0.80;;
359;SDS011;168;48.872;9.226;2023-03-14T07:00:21;2.23;;;1.00;;
359;SDS011;168;48.872;9.226;2023-03-14T07:03:11;1.80;;;0.90;;
359;SDS011;168;48.872;9.226;2023-03-14T07:05:52;0.70;;;0.70;;
359;SDS011;168;48.872;9.226;2023-03-14T07:08:40;1.13;;;0.60;;
359;SDS011;168;48.872;9.226;2023-03-14T07:11:12;1.03;;;0.80;;
359;SDS011;168;48.872;9.226;2023-03-14T07:14:02;2.03;;;1.23;;
359;SDS011;168;48.872;9.226;2023-03-14T07:16:36;1.83;;;0.90;;
359;SDS011;168;48.872;9.226;2023-03-14T07:19:32;1.90;;;0.70;;
359;SDS011;168;48.872;9.226;2023-03-14T07:22:42;1.00;;;0.50;;
359;SDS011;168;48.872;9.226;2023-03-14T07:25:22;1.73;;;0.77;;
359;SDS011;168;48.872;9.226;2023-03-14T07:27:54;0.87;;;0.73;;
359;SDS011;168;48.872;9.226;2023-03-14T07:30:45;1.90;;;1.40;;
359;SDS011;168;48.872;9.226;2023-03-14T07:33:13;2.07;;;0.90;;
359;SDS011;168;48.872;9.226;2023-03-14T07:36:06;1.87;;;0.70;;
359;SDS011;168;48.872;9.226;2023-03-14T07:38:43;0.80;;;0.60;;
359;SDS011;168;48.872;9.226;2023-03-14T07:41:21;1.43;;;0.80;;
359;SDS011;168;48.872;9.226;2023-03-14T07:44:00;2.70;;;0.50;;
359;SDS011;168;48.872;9.226;2023-03-14T07:46:42;0.70;;;0.70;;
359;SDS011;168;48.872;9.226;2023-03-14T07:49:20;0.60;;;0.60;;
359;SDS011;168;48.872;9.226;2023-03-14T07:52:13;0.87;;;0.60;;
359;SDS011;168;48.872;9.226;2023-03-14T07:54:50;1.07;;;0.50;;
359;SDS011;168;48.872;9.226;2023-03-14T07:57:53;0.90;;;0.57;;
359;SDS011;168;48.872;9.226;2023-03-14T08:00:31;0.65;;;0.50;;
359;SDS011;168;48.872;9.226;2023-03-14T08:03:07;0.93;;;0.57;;
359;SDS011;168;48.872;9.226;2023-03-14T08:08:47;2.20;;;0.73;;
359;SDS011;168;48.872;9.226;2023-03-14T08:11:20;1.27;;;0.63;;
359;SDS011;168;48.872;9.226;2023-03-14T08:14:17;1.67;;;0.70;;
359;SDS011;168;48.872;9.226;2023-03-14T08:19:54;1.20;;;0.80;;
359;SDS011;168;48.872;9.226;2023-03-14T08:22:44;1.13;;;0.90;;
359;SDS011;168;48.872;9.226;2023-03-14T08:25:28;0.60;;;0.60;;
359;SDS011;168;48.872;9.226;2023-03-14T08:28:05;1.03;;;0.47;;
359;SDS011;168;48.872;9.226;2023-03-14T08:30:38;1.87;;;0.80;;
359;SDS011;168;48.872;9.226;2023-03-14T08:33:12;1.33;;;0.53;;
359;SDS011;168;48.872;9.226;2023-03-14T08:35:46;0.87;;;0.60;;
359;SDS011;168;48.872;9.226;2023-03-14T08:38:34;1.53;;;0.60;;
359;SDS011;168;48.872;9.226;2023-03-14T08:41:17;1.13;;;0.50;;
359;SDS011;168;48.872;9.226;2023-03-14T08:43:51;0.50;;;0.40;;
359;SDS011;168;48.872;9.226;2023-03-14T08:46:26;1.23;;;0.70;;
359;SDS011;168;48.872;9.226;2023-03-14T08:49:00;0.57;;;0.50;;
359;SDS011;168;48.872;9.226;2023-03-14T08:51:30;0.40;;;0.30;;
359;SDS011;168;48.872;9.226;2023-03-14T08:54:00;0.60;;;0.40;;
359;SDS011;168;48.872;9.226;2023-03-14T08:56:32;0.67;;;0.50;;
359;SDS011;168;48.872;9.226;2023-03-14T08:59:10;1.03;;;0.60;;
359;SDS011;168;48.872;9.226;2023-03-14T09:01:48;0.70;;;0.50;;
359;SDS011;168;48.872;9.226;2023-03-14T09:04:24;1.00;;;0.53;;
359;SDS011;168;48.872;9.226;2023-03-14T09:07:04;0.60;;;0.40;;
359;SDS011;168;48.872;9.226;2023-03-14T09:09:52;0.83;;;0.60;;
359;SDS011;168;48.872;9.226;2023-03-14T09:12:25;1.10;;;0.77;;
359;SDS011;168;48.872;9.226;2023-03-14T09:15:02;0.70;;;0.50;;
359;SDS011;168;48.872;9.226;2023-03-14T09:17:35;0.70;;;0.50;;
359;SDS011;168;48.872;9.226;2023-03-14T09:20:05;1.13;;;0.63;;
359;SDS011;168;48.872;9.226;2023-03-14T09:22:41;0.97;;;0.40;;
359;SDS011;168;48.872;9.226;2023-03-14T09:25:14;2.03;;;0.40;;
359;SDS011;168;48.872;9.226;2023-03-14T09:27:42;0.77;;;0.50;;
359;SDS011;168;48.872;9.226;2023-03-14T09:30:20;0.50;;;0.40;;
359;SDS011;168;48.872;9.226;2023-03-14T09:32:49;2.10;;;0.60;;
359;SDS011;168;48.872;9.226;2023-03-14T09:35:18;1.00;;;0.50;;
359;SDS011;168;48.872;9.226;2023-03-14T09:37:49;1.17;;;0.60;;
359;SDS011;168;48.872;9.226;2023-03-14T09:40:19;1.60;;;0.50;;
359;SDS011;168;48.872;9.226;2023-03-14T09:42:52;2.10;;;0.40;;
359;SDS011;168;48.872;9.226;2023-03-14T09:45:35;0.40;;;0.40;;
359;SDS011;168;48.872;9.226;2023-03-14T09:48:11;0.60;;;0.40;;
359;SDS011;168;48.872;9.226;2023-03-14T09:50:43;2.10;;;0.50;;
359;SDS011;168;48.872;9.226;2023-03-14T09:53:14;1.00;;;0.40;;
359;SDS011;168;48.872;9.226;2023-03-14T09:55:44;0.43;;;0.43;;
359;SDS011;168;48.872;9.226;2023-03-14T09:58:16;1.27;;;0.60;;
359;SDS011;168;48.872;9.226;2023-03-14T10:00:45;0.40;;;0.40;;
359;SDS011;168;48.872;9.226;2023-03-14T10:03:24;0.80;;;0.40;;
359;SDS011;168;48.872;9.226;2023-03-14T10:05:55;0.40;;;0.40;;
359;SDS011;168;48.872;9.226;2023-03-14T10:08:23;0.40;;;0.40;;
359;SDS011;168;48.872;9.226;2023-03-14T10:10:50;0.50;;;0.43;;
359;SDS011;168;48.872;9.226;2023-03-14T10:13:19;0.50;;;0.40;;
359;SDS011;168;48.872;9.226;2023-03-14T10:15:51;0.53;;;0.37;;
359;SDS011;168;48.872;9.226;2023-03-14T10:18:21;0.50;;;0.40;;
359;SDS011;168;48.872;9.226;2023-03-14T10:20:52;0.40;;;0.40;;
359;SDS011;168;48.872;9.226;2023-03-14T10:23:31;0.50;;;0.40;;
359;SDS011;168;48.872;9.226;2023-03-14T10:26:07;0.67;;;0.37;;
359;SDS011;168;48.872;9.226;2023-03-14T10:28:41;0.50;;;0.40;;
359;SDS011;168;48.872;9.226;2023-03-14T10:31:10;0.50;;;0.30;;
359;SDS011;168;48.872;9.226;2023-03-14T10:33:38;0.50;;;0.40;;
359;SDS011;168;48.872;9.226;2023-03-14T10:36:15;0.93;;;0.60;;
359;SDS011;168;48.872;9.226;2023-03-14T10:38:45;0.60;;;0.40;;
359;SDS011;168;48.872;9.226;2023-03-14T10:41:15;0.83;;;0.40;;
359;SDS011;168;48.872;9.226;2023-03-14T10:43:44;1.00;;;0.50;;
359;SDS011;168;48.872;9.226;2023-03-14T10:46:14;0.50;;;0.30;;
359;SDS011;168;48.872;9.226;2023-03-14T10:48:43;0.40;;;0.33;;
359;SDS011;168;48.872;9.226;2023-03-14T10:51:18;0.80;;;0.30;;
359;SDS011;168;48.872;9.226;2023-03-14T10:53:47;0.80;;;0.30;;
359;SDS011;168;48.872;9.226;2023-03-14T10:56:17;1.07;;;0.50;;
359;SDS011;168;48.872;9.226;2023-03-14T10:58:46;0.40;;;0.30;;
359;SDS011;168;48.872;9.226;2023-03-14T11:04:04;0.40;;;0.40;;
359;SDS011;168;48.872;9.226;2023-03-14T11:06:44;0.80;;;0.40;;
359;SDS011;168;48.872;9.226;2023-03-14T11:09:22;0.60;;;0.50;;
359;SDS011;168;48.872;9.226;2023-03-14T11:11:58;0.47;;;0.40;;
359;SDS011;168;48.872;9.226;2023-03-14T11:14:33;0.40;;;0.40;;
359;SDS011;168;48.872;9.226;2023-03-14T11:17:07;0.50;;;0.40;;
359;SDS011;168;48.872;9.226;2023-03-14T11:19:46;0.73;;;0.40;;
359;SDS011;168;48.872;9.226;2023-03-14T11:22:26;0.67;;;0.50;;
359;SDS011;168;48.872;9.226;2023-03-14T11:25:04;0.60;;;0.40;;
359;SDS011;168;48.872;9.226;2023-03-14T11:27:41;0.40;;;0.30;;
359;SDS011;168;48.872;9.226;2023-03-14T11:30:17;0.50;;;0.50;;
359;SDS011;168;48.872;9.226;2023-03-14T11:32:47;1.13;;;0.60;;
359;SDS011;168;48.872;9.226;2023-03-14T11:35:23;0.77;;;0.60;;
359;SDS011;168;48.872;9.226;2023-03-14T11:38:04;0.40;;;0.40;;
359;SDS011;168;48.872;9.226;2023-03-14T11:40:38;0.50;;;0.40;;
359;SDS011;168;48.872;9.226;2023-03-14T11:43:09;0.50;;;0.40;;
359;SDS011;168;48.872;9.226;2023-03-14T11:45:41;1.60;;;0.70;;
359;SDS011;168;48.872;9.226;2023-03-14T11:48:25;0.90;;;0.50;;
359;SDS011;168;48.872;9.226;2023-03-14T11:50:59;0.57;;;0.53;;
359;SDS011;168;48.872;9.226;2023-03-14T11:53:36;0.50;;;0.40;;
359;SDS011;168;48.872;9.226;2023-03-14T11:56:18;1.70;;;0.60;;
359;SDS011;168;48.872;9.226;2023-03-14T11:58:54;0.80;;;0.40;;
359;SDS011;168;48.872;9.226;2023-03-14T12:01:27;0.40;;;0.40;;
359;SDS011;168;48.872;9.226;2023-03-14T12:04:05;1.20;;;0.70;;
359;SDS011;168;48.872;9.226;2023-03-14T12:06:40;0.60;;;0.60;;
359;SDS011;168;48.872;9.226;2023-03-14T12:09:15;0.40;;;0.40;;
359;SDS011;168;48.872;9.226;2023-03-14T12:11:46;0.70;;;0.57;;
359;SDS011;168;48.872;9.226;2023-03-14T12:14:22;0.60;;;0.40;;
359;SDS011;168;48.872;9.226;2023-03-14T12:16:54;0.50;;;0.50;;
359;SDS011;168;48.872;9.226;2023-03-14T12:19:28;0.40;;;0.30;;
359;SDS011;168;48.872;9.226;2023-03-14T12:21:59;0.90;;;0.70;;
359;SDS011;168;48.872;9.226;2023-03-14T12:24:35;1.10;;;0.43;;
359;SDS011;168;48.872;9.226;2023-03-14T12:27:05;0.60;;;0.60;;
359;SDS011;168;48.872;9.226;2023-03-14T12:29:40;0.97;;;0.70;;
359;SDS011;168;48.872;9.226;2023-03-14T12:32:25;0.40;;;0.40;;
359;SDS011;168;48.872;9.226;2023-03-14T12:34:57;0.40;;;0.40;;
359;SDS011;168;48.872;9.226;2023-03-14T12:37:54;0.93;;;0.70;;
359;SDS011;168;48.872;9.226;2023-03-14T12:40:26;1.57;;;0.87;;
359;SDS011;168;48.872;9.226;2023-03-14T12:42:58;0.80;;;0.80;;
359;SDS011;168;48.872;9.226;2023-03-14T12:45:28;1.47;;;1.00;;
359;SDS011;168;48.872;9.226;2023-03-14T12:48:00;2.53;;;1.20;;
359;SDS011;168;48.872;9.226;2023-03-14T12:50:37;1.20;;;1.10;;
359;SDS011;168;48.872;9.226;2023-03-14T12:53:20;1.37;;;1.27;;
359;SDS011;168;48.872;9.226;2023-03-14T12:56:28;4.13;;;1.27;;
359;SDS011;168;48.872;9.226;2023-03-14T12:59:22;1.10;;;1.10;;
359;SDS011;168;48.872;9.226;2023-03-14T13:01:56;0.80;;;0.80;;
359;SDS011;168;48.872;9.226;2023-03-14T13:04:27;1.00;;;0.73;;
359;SDS011;168;48.872;9.226;2023-03-14T13:06:58;3.30;;;0.87;;
359;SDS011;168;48.872;9.226;2023-03-14T13:12:29;1.27;;;1.17;;
359;SDS011;168;48.872;9.226;2023-03-14T13:15:11;0.67;;;0.60;;
359;SDS011;168;48.872;9.226;2023-03-14T13:17:43;1.20;;;0.80;;
359;SDS011;168;48.872;9.226;2023-03-14T13:20:13;1.40;;;0.90;;
359;SDS011;168;48.872;9.226;2023-03-14T13:22:47;0.70;;;0.70;;
359;SDS011;168;48.872;9.226;2023-03-14T13:25:21;0.70;;;0.70;;
359;SDS011;168;48.872;9.226;2023-03-14T13:27:51;2.13;;;0.90;;
359;SDS011;168;48.872;9.226;2023-03-14T13:30:21;1.07;;;0.87;;
359;SDS011;168;48.872;9.226;2023-03-14T13:32:51;3.53;;;1.10;;
359;SDS011;168;48.872;9.226;2023-03-14T13:35:21;0.73;;;0.50;;
359;SDS011;168;48.872;9.226;2023-03-14T13:37:55;0.70;;;0.60;;
359;SDS011;168;48.872;9.226;2023-03-14T13:40:25;1.77;;;1.07;;
359;SDS011;168;48.872;9.226;2023-03-14T13:43:02;1.80;;;0.50;;
359;SDS011;168;48.872;9.226;2023-03-14T13:45:41;0.90;;;0.70;;
359;SDS011;168;48.872;9.226;2023-03-14T13:48:12;0.60;;;0.53;;
359;SDS011;168;48.872;9.226;2023-03-14T13:50:45;1.53;;;0.60;;
359;SDS011;168;48.872;9.226;2023-03-14T13:53:16;0.70;;;0.67;;
359;SDS011;168;48.872;9.226;2023-03-14T13:55:44;0.60;;;0.50;;
359;SDS011;168;48.872;9.226;2023-03-14T13:58:24;1.47;;;1.10;;
359;SDS011;168;48.872;9.226;2023-03-14T14:00:54;2.20;;;0.70;;
359;SDS011;168;48.872;9.226;2023-03-14T14:03:25;1.03;;;0.60;;
359;SDS011;168;48.872;9.226;2023-03-14T14:06:01;3.30;;;0.80;;
359;SDS011;168;48.872;9.226;2023-03-14T14:08:29;3.23;;;0.60;;
359;SDS011;168;48.872;9.226;2023-03-14T14:10:58;1.93;;;0.80;;
359;SDS011;168;48.872;9.226;2023-03-14T14:13:29;1.20;;;0.47;;
359;SDS011;168;48.872;9.226;2023-03-14T14:16:01;1.13;;;0.50;;
359;SDS011;168;48.872;9.226;2023-03-14T14:18:30;0.80;;;0.60;;
359;SDS011;168;48.872;9.226;2023-03-14T14:20:58;1.13;;;0.50;;
359;SDS011;168;48.872;9.226;2023-03-14T14:23:27;0.93;;;0.70;;
359;SDS011;168;48.872;9.226;2023-03-14T14:25:57;1.13;;;0.83;;
359;SDS011;168;48.872;9.226;2023-03-14T14:28:28;1.40;;;0.90;;
359;SDS011;168;48.872;9.226;2023-03-14T14:31:02;2.43;;;1.00;;
359;SDS011;168;48.872;9.226;2023-03-14T14:33:38;2.20;;;0.83;;
359;SDS011;168;48.872;9.226;2023-03-14T14:36:12;2.83;;;1.20;;
359;SDS011;168;48.872;9.226;2023-03-14T14:38:48;2.90;;;0.80;;
359;SDS011;168;48.872;9.226;2023-03-14T14:41:16;2.10;;;1.00;;
359;SDS011;168;48.872;9.226;2023-03-14T14:43:45;1.60;;;0.90;;
359;SDS011;168;48.872;9.226;2023-03-14T14:46:15;2.40;;;1.57;;
359;SDS011;168;48.872;9.226;2023-03-14T14:48:47;1.00;;;0.67;;
359;SDS011;168;48.872;9.226;2023-03-14T14:51:22;5.70;;;0.80;;
359;SDS011;168;48.872;9.226;2023-03-14T14:54:02;0.90;;;0.80;;
359;SDS011;168;48.872;9.226;2023-03-14T14:56:36;2.40;;;1.00;;
359;SDS011;168;48.872;9.226;2023-03-14T14:59:06;5.30;;;0.90;;
359;SDS011;168;48.872;9.226;2023-03-14T15:01:45;0.80;;;0.60;;
359;SDS011;168;48.872;9.226;2023-03-14T15:04:15;1.40;;;0.83;;
359;SDS011;168;48.872;9.226;2023-03-14T15:06:43;1.83;;;0.73;;
359;SDS011;168;48.872;9.226;2023-03-14T15:09:13;2.57;;;1.03;;
359;SDS011;168;48.872;9.226;2023-03-14T15:11:42;3.87;;;2.40;;
359;SDS011;168;48.872;9.226;2023-03-14T15:14:10;4.63;;;1.00;;
359;SDS011;168;48.872;9.226;2023-03-14T15:16:41;2.43;;;0.90;;
359;SDS011;168;48.872;9.226;2023-03-14T15:19:10;3.07;;;1.33;;
359;SDS011;168;48.872;9.226;2023-03-14T15:21:41;3.47;;;1.07;;
359;SDS011;168;48.872;9.226;2023-03-14T15:24:08;1.50;;;0.93;;
359;SDS011;168;48.872;9.226;2023-03-14T15:26:38;1.77;;;0.80;;
359;SDS011;168;48.872;9.226;2023-03-14T15:29:13;3.83;;;1.40;;
359;SDS011;168;48.872;9.226;2023-03-14T15:31:47;2.10;;;1.10;;
359;SDS011;168;48.872;9.226;2023-03-14T15:34:53;1.70;;;1.20;;
359;SDS011;168;48.872;9.226;2023-03-14T15:37:38;3.00;;;1.33;;
359;SDS011;168;48.872;9.226;2023-03-14T15:40:06;3.10;;;1.00;;
359;SDS011;168;48.872;9.226;2023-03-14T15:42:39;1.63;;;0.90;;
359;SDS011;168;48.872;9.226;2023-03-14T15:45:08;2.47;;;1.10;;
359;SDS011;168;48.872;9.226;2023-03-14T15:47:36;2.30;;;1.27;;
359;SDS011;168;48.872;9.226;2023-03-14T15:50:03;1.70;;;1.13;;
359;SDS011;168;48.872;9.226;2023-03-14T15:52:35;4.63;;;1.00;;
359;SDS011;168;48.872;9.226;2023-03-14T15:55:02;3.33;;;1.13;;
359;SDS011;168;48.872;9.226;2023-03-14T15:57:30;2.30;;;1.10;;
359;SDS011;168;48.872;9.226;2023-03-14T15:59:57;3.27;;;1.37;;
359;SDS011;168;48.872;9.226;2023-03-14T16:02:26;3.57;;;1.17;;
359;SDS011;168;48.872;9.226;2023-03-14T16:04:53;1.63;;;1.13;;
359;SDS011;168;48.872;9.226;2023-03-14T16:07:21;3.53;;;1.20;;
359;SDS011;168;48.872;9.226;2023-03-14T16:09:48;5.07;;;1.37;;
359;SDS011;168;48.872;9.226;2023-03-14T16:12:15;2.63;;;1.00;;
359;SDS011;168;48.872;9.226;2023-03-14T16:14:43;3.67;;;1.93;;
359;SDS011;168;48.872;9.226;2023-03-14T16:17:13;2.33;;;1.10;;
359;SDS011;168;48.872;9.226;2023-03-14T16:19:43;3.03;;;1.50;;
359;SDS011;168;48.872;9.226;2023-03-14T16:22:11;4.00;;;1.53;;
359;SDS011;168;48.872;9.226;2023-03-14T16:24:39;2.67;;;1.03;;
359;SDS011;168;48.872;9.226;2023-03-14T16:27:06;1.83;;;1.07;;
359;SDS011;168;48.872;9.226;2023-03-14T16:29:37;4.53;;;0.90;;
359;SDS011;168;48.872;9.226;2023-03-14T16:32:20;2.40;;;1.00;;
359;SDS011;168;48.872;9.226;2023-03-14T16:34:56;2.80;;;1.20;;
359;SDS011;168;48.872;9.226;2023-03-14T16:37:28;2.40;;;1.40;;
359;SDS011;168;48.872;9.226;2023-03-14T16:40:01;3.00;;;1.47;;